Time;durP1;ratioP1;P1;durP2;ratioP2;P2;SDS_P1;SDS_P2;PMS_P1;PMS_P2;Temp;Humidity;BMP_temperature;BMP_pressure;BME280_temperature;BME280_humidity;BME280_pressure;Samples;Min_cycle;Max_cycle;Signal;HPM_P1;HPM_P2
2024/02/27 00:00:16;;;;;;;75.90;47.90;;;;;;;;;;103724;1291;545131;-71
2024/02/27 00:03:53;;;;;;;75.80;48.10;;;;;;;;;;103754;1295;545035;-71
2024/02/27 00:07:30;;;;;;;79.00;47.90;;;;;;;;;;103852;1289;545257;-71
2024/02/27 00:11:08;;;;;;;81.10;50.30;;;;;;;;;;103936;1293;546277;-71
2024/02/27 00:14:44;;;;;;;80.20;50.20;;;;;;;;;;103849;1295;545038;-71
2024/02/27 00:18:23;;;;;;;76.60;50.70;;;;;;;;;;103696;1291;544995;-71
2024/02/27 00:22:00;;;;;;;72.80;46.50;;;;;;;;;;103779;1301;544751;-71
2024/02/27 00:25:37;;;;;;;68.80;44.10;;;;;;;;;;103711;1291;545411;-71
2024/02/27 00:29:18;;;;;;;60.50;39.20;;;;;;;;;;103666;1291;544755;-71
2024/02/27 00:32:52;;;;;;;56.20;36.40;;;;;;;;;;103778;1291;544843;-71
2024/02/27 00:36:26;;;;;;;56.60;35.40;;;;;;;;;;103757;1291;544909;-71
2024/02/27 00:40:08;;;;;;;54.90;33.90;;;;;;;;;;103813;1289;545651;-71
2024/02/27 00:43:45;;;;;;;54.20;33.50;;;;;;;;;;103740;1291;544998;-71
2024/02/27 00:47:23;;;;;;;50.40;31.80;;;;;;;;;;103854;1292;545243;-71
2024/02/27 00:51:00;;;;;;;51.40;34.30;;;;;;;;;;103686;1291;545591;-71
2024/02/27 00:54:37;;;;;;;55.30;35.40;;;;;;;;;;103959;1289;545348;-71
2024/02/27 00:58:15;;;;;;;48.70;31.40;;;;;;;;;;103706;1291;544927;-71
2024/02/27 01:01:52;;;;;;;48.80;30.00;;;;;;;;;;103750;1292;544901;-71
2024/02/27 01:05:30;;;;;;;47.40;30.70;;;;;;;;;;103772;1289;545538;-71
2024/02/27 01:09:07;;;;;;;43.00;28.00;;;;;;;;;;103684;1294;545329;-71
2024/02/27 01:12:44;;;;;;;48.30;31.70;;;;;;;;;;103666;1295;545597;-71
2024/02/27 01:16:23;;;;;;;48.70;32.60;;;;;;;;;;103997;1289;544980;-71
2024/02/27 01:19:59;;;;;;;52.50;34.20;;;;;;;;;;103689;1289;545528;-71
2024/02/27 01:23:37;;;;;;;56.60;33.60;;;;;;;;;;103738;1290;545151;-71
2024/02/27 01:27:15;;;;;;;66.20;40.90;;;;;;;;;;103804;1289;546025;-71
2024/02/27 01:30:52;;;;;;;66.60;41.70;;;;;;;;;;103789;1292;545366;-71
2024/02/27 01:34:30;;;;;;;69.10;45.10;;;;;;;;;;103760;1289;545189;-71
2024/02/27 01:38:07;;;;;;;72.60;46.00;;;;;;;;;;103746;1289;545019;-71
2024/02/27 01:41:47;;;;;;;72.00;46.60;;;;;;;;;;103624;1295;544804;-71
2024/02/27 01:45:22;;;;;;;54.90;35.70;;;;;;;;;;103668;1290;544906;-71
2024/02/27 01:48:59;;;;;;;38.30;24.40;;;;;;;;;;103758;1292;544989;-71
2024/02/27 01:52:37;;;;;;;29.40;18.80;;;;;;;;;;103735;1290;544990;-71
2024/02/27 01:56:15;;;;;;;28.20;17.90;;;;;;;;;;103720;1291;545001;-71
2024/02/27 01:59:48;;;;;;;28.80;17.50;;;;;;;;;;103695;1291;545620;-71
2024/02/27 02:03:34;;;;;;;27.90;17.50;;;;;;;;;;104685;1282;545425;-71
2024/02/27 02:07:07;;;;;;;27.30;18.80;;;;;;;;;;103856;1289;544869;-71
2024/02/27 02:10:44;;;;;;;42.70;27.00;;;;;;;;;;103691;1294;545566;-71
2024/02/27 02:14:22;;;;;;;56.10;33.80;;;;;;;;;;103806;1290;544782;-72
2024/02/27 02:17:59;;;;;;;60.80;38.20;;;;;;;;;;103682;1290;545627;-71
2024/02/27 02:21:37;;;;;;;61.70;37.60;;;;;;;;;;104589;1282;544797;-71
2024/02/27 02:25:16;;;;;;;54.00;33.70;;;;;;;;;;103781;1292;545031;-71
2024/02/27 02:28:48;;;;;;;51.60;33.20;;;;;;;;;;103709;1290;545531;-71
2024/02/27 02:32:25;;;;;;;54.10;31.70;;;;;;;;;;103704;1289;545804;-71
2024/02/27 02:36:07;;;;;;;46.80;31.00;;;;;;;;;;103762;1289;545420;-71
2024/02/27 02:39:43;;;;;;;48.60;34.30;;;;;;;;;;103745;1294;544986;-72
2024/02/27 02:43:22;;;;;;;48.60;31.80;;;;;;;;;;103793;1289;544882;-71
2024/02/27 02:46:58;;;;;;;44.30;30.00;;;;;;;;;;103640;1291;545641;-72
2024/02/27 02:50:37;;;;;;;50.00;31.90;;;;;;;;;;103787;1295;545028;-71
2024/02/27 02:54:14;;;;;;;43.50;29.40;;;;;;;;;;103852;1289;544676;-71
2024/02/27 02:57:48;;;;;;;42.10;30.40;;;;;;;;;;103854;1288;545831;-71
2024/02/27 03:01:29;;;;;;;44.50;30.60;;;;;;;;;;103590;1291;545729;-71
2024/02/27 03:05:12;;;;;;;47.10;30.80;;;;;;;;;;103944;1289;545679;-71
2024/02/27 03:08:45;;;;;;;48.70;32.50;;;;;;;;;;103698;1291;544836;-71
2024/02/27 03:12:23;;;;;;;48.00;31.60;;;;;;;;;;103752;1289;544728;-71
2024/02/27 03:15:58;;;;;;;49.10;33.30;;;;;;;;;;103780;1295;544958;-71
2024/02/27 03:19:37;;;;;;;78.60;50.70;;;;;;;;;;103738;1295;545035;-72
2024/02/27 03:23:13;;;;;;;81.70;51.10;;;;;;;;;;103703;1295;544993;-71
2024/02/27 03:26:51;;;;;;;94.30;58.80;;;;;;;;;;103830;1289;544895;-71
2024/02/27 03:30:29;;;;;;;99.10;60.00;;;;;;;;;;103661;1295;545626;-71
2024/02/27 03:34:07;;;;;;;82.10;52.80;;;;;;;;;;104016;1289;545544;-71
2024/02/27 03:37:44;;;;;;;91.60;57.90;;;;;;;;;;103751;1289;545869;-71
2024/02/27 03:41:21;;;;;;;117.90;69.80;;;;;;;;;;103775;1292;544788;-71
2024/02/27 03:44:58;;;;;;;117.00;70.60;;;;;;;;;;103797;1289;544951;-71
2024/02/27 03:48:36;;;;;;;112.70;68.70;;;;;;;;;;103773;1292;545421;-71
2024/02/27 03:52:10;;;;;;;120.90;68.50;;;;;;;;;;103680;1291;545075;-71
2024/02/27 03:55:51;;;;;;;126.20;72.40;;;;;;;;;;104088;1290;545284;-71
2024/02/27 03:59:26;;;;;;;121.90;74.00;;;;;;;;;;103665;1294;544839;-71
2024/02/27 04:03:06;;;;;;;111.10;67.80;;;;;;;;;;103773;1292;544926;-71
2024/02/27 04:06:43;;;;;;;116.20;65.90;;;;;;;;;;103643;1292;545028;-71
2024/02/27 04:10:20;;;;;;;104.80;61.20;;;;;;;;;;103828;1289;544983;-71
2024/02/27 04:13:59;;;;;;;91.60;54.70;;;;;;;;;;103738;1291;544779;-71
2024/02/27 04:17:35;;;;;;;78.40;47.20;;;;;;;;;;103705;1290;544807;-71
2024/02/27 04:21:13;;;;;;;82.20;54.20;;;;;;;;;;103768;1290;544889;-71
2024/02/27 04:24:50;;;;;;;77.40;49.70;;;;;;;;;;103766;1295;544959;-71
2024/02/27 04:28:24;;;;;;;76.70;47.60;;;;;;;;;;103766;1293;545096;-71
2024/02/27 04:32:06;;;;;;;77.20;48.10;;;;;;;;;;103853;1292;545582;-71
2024/02/27 04:35:39;;;;;;;70.20;43.00;;;;;;;;;;103856;1289;545842;-71
2024/02/27 04:39:21;;;;;;;70.60;45.30;;;;;;;;;;103847;1292;544951;-71
2024/02/27 04:42:58;;;;;;;72.30;47.80;;;;;;;;;;103733;1289;545447;-71
2024/02/27 04:46:35;;;;;;;65.80;45.10;;;;;;;;;;103769;1289;544934;-71
2024/02/27 04:50:13;;;;;;;63.10;43.40;;;;;;;;;;103672;1292;545416;-71
2024/02/27 04:53:50;;;;;;;64.90;43.00;;;;;;;;;;103766;1292;545053;-71
2024/02/27 04:57:28;;;;;;;60.80;42.80;;;;;;;;;;103785;1289;544812;-71
2024/02/27 05:01:09;;;;;;;57.20;41.80;;;;;;;;;;103841;1289;544947;-71
2024/02/27 05:04:42;;;;;;;64.40;47.40;;;;;;;;;;104294;1285;545275;-71
2024/02/27 05:08:20;;;;;;;67.50;48.40;;;;;;;;;;103868;1298;544781;-71
2024/02/27 05:11:57;;;;;;;85.40;57.20;;;;;;;;;;103853;1289;545178;-71
2024/02/27 05:15:31;;;;;;;80.10;54.70;;;;;;;;;;103726;1292;544877;-71
2024/02/27 05:19:12;;;;;;;84.00;55.80;;;;;;;;;;103689;1294;545533;-71
2024/02/27 05:22:46;;;;;;;119.50;67.20;;;;;;;;;;103533;1290;544833;-71
2024/02/27 05:26:27;;;;;;;114.90;63.90;;;;;;;;;;103663;1291;545078;-71
2024/02/27 05:30:06;;;;;;;110.00;64.30;;;;;;;;;;103680;1290;545614;-71
2024/02/27 05:33:42;;;;;;;116.40;65.50;;;;;;;;;;103723;1293;544790;-71
2024/02/27 05:37:20;;;;;;;116.40;61.10;;;;;;;;;;103812;1290;545768;-71
2024/02/27 05:40:57;;;;;;;112.30;62.10;;;;;;;;;;103668;1295;544982;-71
2024/02/27 05:44:35;;;;;;;101.30;56.20;;;;;;;;;;103657;1291;545597;-71
2024/02/27 05:48:11;;;;;;;92.60;52.30;;;;;;;;;;103713;1290;546312;-71
2024/02/27 05:51:50;;;;;;;73.60;47.70;;;;;;;;;;103600;1292;544980;-71
2024/02/27 05:55:27;;;;;;;82.60;49.10;;;;;;;;;;103714;1289;545462;-70
2024/02/27 05:59:00;;;;;;;76.00;50.00;;;;;;;;;;103771;1288;545663;-69
2024/02/27 06:02:41;;;;;;;80.00;51.20;;;;;;;;;;103629;1291;545070;-71
2024/02/27 06:06:20;;;;;;;81.80;48.90;;;;;;;;;;103800;1289;544799;-71
2024/02/27 06:10:17;;;;;;;84.90;50.70;;;;;;;;;;103632;1290;547828;-71
2024/02/27 06:13:35;;;;;;;94.50;55.50;;;;;;;;;;103805;1289;544833;-71
2024/02/27 06:17:12;;;;;;;79.90;48.60;;;;;;;;;;103670;1292;544863;-71
2024/02/27 06:24:27;;;;;;;106.40;51.60;;;;;;;;;;103742;1291;544727;-71
2024/02/27 06:28:04;;;;;;;121.00;45.90;;;;;;;;;;103792;1296;546172;-71
2024/02/27 06:32:02;;;;;;;106.50;47.00;;;;;;;;;;103603;1294;548005;-71
2024/02/27 06:35:21;;;;;;;95.70;45.60;;;;;;;;;;103807;1289;545414;-71
2024/02/27 06:38:56;;;;;;;95.40;39.80;;;;;;;;;;103886;1289;545478;-71
2024/02/27 06:42:36;;;;;;;63.00;31.20;;;;;;;;;;103819;1289;545310;-71
2024/02/27 06:46:11;;;;;;;108.60;53.70;;;;;;;;;;103894;1289;545083;-71
2024/02/27 06:49:49;;;;;;;158.00;76.10;;;;;;;;;;103822;1289;545224;-71
2024/02/27 06:53:26;;;;;;;71.10;40.60;;;;;;;;;;103701;1291;545264;-71
2024/02/27 06:57:04;;;;;;;41.30;27.90;;;;;;;;;;103873;1289;545009;-71
2024/02/27 07:00:41;;;;;;;41.10;28.80;;;;;;;;;;103583;1295;545256;-70
2024/02/27 07:04:19;;;;;;;36.40;24.70;;;;;;;;;;103687;1292;545443;-71
2024/02/27 07:07:56;;;;;;;36.30;24.50;;;;;;;;;;103722;1290;545416;-71
2024/02/27 07:11:34;;;;;;;45.70;30.10;;;;;;;;;;103809;1292;545687;-71
2024/02/27 07:15:11;;;;;;;46.30;28.80;;;;;;;;;;103664;1291;545041;-71
2024/02/27 07:18:49;;;;;;;54.80;33.30;;;;;;;;;;103854;1289;545980;-71
2024/02/27 07:22:25;;;;;;;48.10;32.40;;;;;;;;;;103646;1294;546081;-71
2024/02/27 07:26:04;;;;;;;47.10;28.20;;;;;;;;;;103736;1289;545625;-71
2024/02/27 07:29:41;;;;;;;42.10;27.70;;;;;;;;;;103580;1291;545493;-71
2024/02/27 07:33:19;;;;;;;46.20;33.00;;;;;;;;;;104587;1285;545691;-71
2024/02/27 07:36:55;;;;;;;45.00;32.50;;;;;;;;;;103592;1297;545086;-71
2024/02/27 07:40:34;;;;;;;40.70;25.80;;;;;;;;;;103874;1289;545244;-72
2024/02/27 07:44:11;;;;;;;34.10;22.80;;;;;;;;;;103638;1291;544761;-71
2024/02/27 07:47:48;;;;;;;31.20;21.70;;;;;;;;;;103817;1289;545381;-71
2024/02/27 07:51:30;;;;;;;29.00;20.80;;;;;;;;;;103615;1292;546516;-71
2024/02/27 07:55:04;;;;;;;33.30;22.20;;;;;;;;;;104483;1283;545662;-71
2024/02/27 07:58:41;;;;;;;32.90;22.50;;;;;;;;;;103661;1291;546037;-72
2024/02/27 08:02:18;;;;;;;32.50;23.60;;;;;;;;;;103846;1292;545038;-72
2024/02/27 08:05:57;;;;;;;36.60;24.80;;;;;;;;;;103733;1292;544755;-71
2024/02/27 08:09:35;;;;;;;36.20;25.30;;;;;;;;;;103721;1291;545096;-71
2024/02/27 08:13:10;;;;;;;35.90;24.70;;;;;;;;;;103670;1295;546683;-71
2024/02/27 08:16:48;;;;;;;39.60;26.10;;;;;;;;;;103811;1289;545632;-71
2024/02/27 08:20:25;;;;;;;39.70;26.20;;;;;;;;;;103895;1287;544992;-71
2024/02/27 08:24:05;;;;;;;43.50;27.00;;;;;;;;;;103846;1289;544924;-72
2024/02/27 08:27:41;;;;;;;45.20;27.30;;;;;;;;;;103663;1291;544995;-71
2024/02/27 08:31:19;;;;;;;39.00;26.10;;;;;;;;;;103803;1289;544942;-71
2024/02/27 08:34:55;;;;;;;58.20;35.90;;;;;;;;;;103721;1289;545667;-71
2024/02/27 08:38:33;;;;;;;48.60;32.00;;;;;;;;;;104034;1289;544792;-71
2024/02/27 08:42:10;;;;;;;44.50;31.20;;;;;;;;;;103634;1301;545790;-72
2024/02/27 08:45:48;;;;;;;44.70;30.60;;;;;;;;;;103819;1290;544836;-71
2024/02/27 08:49:25;;;;;;;48.60;33.40;;;;;;;;;;103617;1292;545658;-71
2024/02/27 08:53:04;;;;;;;53.70;34.70;;;;;;;;;;103862;1292;544982;-72
2024/02/27 08:56:40;;;;;;;51.80;33.90;;;;;;;;;;104268;1283;545327;-71
2024/02/27 09:00:18;;;;;;;55.80;32.20;;;;;;;;;;103946;1289;545163;-72
2024/02/27 09:03:55;;;;;;;59.80;29.60;;;;;;;;;;103673;1292;544736;-72
2024/02/27 09:07:29;;;;;;;60.70;29.00;;;;;;;;;;103760;1289;545002;-72
2024/02/27 09:11:10;;;;;;;54.10;36.10;;;;;;;;;;104156;1285;545586;-72
2024/02/27 09:14:48;;;;;;;62.20;37.00;;;;;;;;;;103823;1292;545486;-72
2024/02/27 09:18:25;;;;;;;55.60;38.30;;;;;;;;;;103843;1287;545002;-72
2024/02/27 09:22:04;;;;;;;58.50;39.70;;;;;;;;;;103611;1298;545251;-72
2024/02/27 09:25:40;;;;;;;50.20;34.00;;;;;;;;;;103754;1289;545494;-72
2024/02/27 09:29:18;;;;;;;47.60;33.20;;;;;;;;;;103916;1289;545000;-71
2024/02/27 09:32:55;;;;;;;57.90;39.40;;;;;;;;;;103776;1294;545281;-72
2024/02/27 09:36:33;;;;;;;59.80;41.60;;;;;;;;;;103826;1296;545092;-72
2024/02/27 09:40:11;;;;;;;57.60;39.90;;;;;;;;;;103639;1292;544830;-72
2024/02/27 09:43:53;;;;;;;49.20;35.10;;;;;;;;;;103749;1292;545376;-72
2024/02/27 09:47:28;;;;;;;49.80;35.70;;;;;;;;;;103715;1290;544769;-72
2024/02/27 09:51:04;;;;;;;55.00;37.50;;;;;;;;;;103829;1289;546274;-72
2024/02/27 09:54:41;;;;;;;48.80;33.30;;;;;;;;;;103651;1295;545094;-72
2024/02/27 09:58:14;;;;;;;51.80;36.30;;;;;;;;;;103763;1291;545714;-72
2024/02/27 10:02:00;;;;;;;52.30;35.20;;;;;;;;;;103598;1291;545496;-72
2024/02/27 10:05:36;;;;;;;54.40;37.20;;;;;;;;;;104017;1289;545677;-72
2024/02/27 10:09:11;;;;;;;50.20;34.70;;;;;;;;;;103670;1292;545088;-72
2024/02/27 10:12:48;;;;;;;43.90;30.20;;;;;;;;;;104335;1286;544975;-72
2024/02/27 10:16:25;;;;;;;41.20;28.30;;;;;;;;;;103719;1291;544918;-71
2024/02/27 10:19:59;;;;;;;50.40;32.10;;;;;;;;;;103870;1289;545007;-72
2024/02/27 10:23:40;;;;;;;50.70;33.10;;;;;;;;;;104121;1285;545885;-72
2024/02/27 10:27:17;;;;;;;53.70;35.70;;;;;;;;;;103805;1289;546358;-72
2024/02/27 10:30:56;;;;;;;53.90;34.60;;;;;;;;;;103584;1292;545011;-72
2024/02/27 10:34:33;;;;;;;51.40;33.90;;;;;;;;;;103829;1289;545165;-72
2024/02/27 10:38:13;;;;;;;54.10;36.50;;;;;;;;;;103783;1289;545055;-72
2024/02/27 10:41:47;;;;;;;48.50;33.30;;;;;;;;;;103849;1289;545007;-71
2024/02/27 10:45:25;;;;;;;52.50;35.70;;;;;;;;;;103665;1302;544805;-71
2024/02/27 10:49:03;;;;;;;49.30;34.10;;;;;;;;;;103986;1289;545837;-72
2024/02/27 10:52:40;;;;;;;55.00;36.90;;;;;;;;;;103804;1289;545684;-72
2024/02/27 10:56:18;;;;;;;54.70;35.50;;;;;;;;;;103822;1292;546184;-72
2024/02/27 10:59:55;;;;;;;50.40;33.20;;;;;;;;;;103779;1292;544828;-72
2024/02/27 11:03:33;;;;;;;56.30;35.90;;;;;;;;;;103863;1289;545537;-72
2024/02/27 11:07:12;;;;;;;53.80;36.80;;;;;;;;;;103714;1289;545184;-72
2024/02/27 11:10:48;;;;;;;49.60;34.50;;;;;;;;;;103865;1289;545087;-72
2024/02/27 11:14:25;;;;;;;49.50;33.40;;;;;;;;;;103673;1291;544710;-72
2024/02/27 11:18:02;;;;;;;52.60;34.30;;;;;;;;;;103822;1294;544886;-72
2024/02/27 11:21:40;;;;;;;54.10;35.10;;;;;;;;;;103782;1291;544811;-72
2024/02/27 11:25:17;;;;;;;53.10;36.40;;;;;;;;;;103915;1292;544768;-72
2024/02/27 11:28:55;;;;;;;49.60;33.50;;;;;;;;;;104073;1286;544898;-72
2024/02/27 11:32:33;;;;;;;42.60;29.30;;;;;;;;;;103842;1290;545784;-72
2024/02/27 11:36:10;;;;;;;45.80;31.50;;;;;;;;;;104355;1295;545331;-72
2024/02/27 11:39:47;;;;;;;49.60;34.30;;;;;;;;;;103842;1289;544872;-72
2024/02/27 11:43:24;;;;;;;54.10;36.20;;;;;;;;;;103617;1291;545959;-72
2024/02/27 11:47:14;;;;;;;52.60;34.30;;;;;;;;;;103924;1290;545197;-72
2024/02/27 11:50:39;;;;;;;56.00;35.90;;;;;;;;;;103607;1291;544862;-72
2024/02/27 11:54:30;;;;;;;59.70;40.00;;;;;;;;;;103670;1292;546004;-72
2024/02/27 11:57:55;;;;;;;55.70;37.70;;;;;;;;;;103710;1289;545522;-72
2024/02/27 12:01:31;;;;;;;55.90;36.30;;;;;;;;;;103751;1289;545096;-72
2024/02/27 12:05:05;;;;;;;55.00;35.70;;;;;;;;;;103817;1292;545163;-72
2024/02/27 12:08:47;;;;;;;54.40;37.40;;;;;;;;;;103798;1289;545947;-72
2024/02/27 12:12:24;;;;;;;53.30;37.10;;;;;;;;;;104178;1286;545165;-72
2024/02/27 12:16:02;;;;;;;52.80;36.40;;;;;;;;;;103734;1292;545236;-72
2024/02/27 12:19:38;;;;;;;50.40;33.60;;;;;;;;;;103734;1292;545463;-72
2024/02/27 12:23:17;;;;;;;57.80;37.80;;;;;;;;;;103923;1288;545462;-72
2024/02/27 12:26:56;;;;;;;50.70;35.10;;;;;;;;;;103583;1305;545924;-72
2024/02/27 12:30:32;;;;;;;55.70;36.90;;;;;;;;;;103544;1294;545563;-72
2024/02/27 12:34:08;;;;;;;57.30;38.60;;;;;;;;;;103594;1291;544762;-72
2024/02/27 12:37:42;;;;;;;56.80;37.40;;;;;;;;;;104005;1289;545413;-70
2024/02/27 12:41:23;;;;;;;50.90;34.40;;;;;;;;;;104050;1296;545067;-72
2024/02/27 12:44:57;;;;;;;49.80;33.30;;;;;;;;;;103863;1288;545077;-71
2024/02/27 12:48:39;;;;;;;46.60;32.40;;;;;;;;;;103738;1292;544990;-72
2024/02/27 12:52:16;;;;;;;47.40;31.30;;;;;;;;;;103874;1288;545498;-72
2024/02/27 12:56:12;;;;;;;48.50;33.40;;;;;;;;;;103674;1292;547483;-72
2024/02/27 12:59:32;;;;;;;46.40;32.70;;;;;;;;;;104164;1286;545401;-72
2024/02/27 13:03:08;;;;;;;47.40;32.50;;;;;;;;;;103646;1292;545843;-72
2024/02/27 13:06:46;;;;;;;53.80;37.20;;;;;;;;;;103723;1291;545500;-72
2024/02/27 13:10:23;;;;;;;53.20;37.40;;;;;;;;;;103705;1290;545019;-72
2024/02/27 13:14:01;;;;;;;52.90;36.50;;;;;;;;;;103846;1289;544795;-72
2024/02/27 13:17:38;;;;;;;51.20;36.20;;;;;;;;;;103696;1294;545606;-73
2024/02/27 13:21:21;;;;;;;47.00;32.50;;;;;;;;;;103774;1289;545045;-72
2024/02/27 13:24:53;;;;;;;46.40;32.70;;;;;;;;;;103709;1293;544784;-72
2024/02/27 13:28:32;;;;;;;48.50;33.30;;;;;;;;;;103876;1292;545388;-72
2024/02/27 13:32:08;;;;;;;48.00;32.40;;;;;;;;;;103703;1291;545125;-72
2024/02/27 13:35:46;;;;;;;47.60;31.50;;;;;;;;;;103832;1291;544944;-72
2024/02/27 13:39:22;;;;;;;46.40;31.70;;;;;;;;;;103777;1292;545509;-72
2024/02/27 13:43:02;;;;;;;50.30;34.10;;;;;;;;;;103713;1295;545253;-72
2024/02/27 13:46:37;;;;;;;52.70;35.50;;;;;;;;;;103572;1292;545531;-72
2024/02/27 13:50:15;;;;;;;89.40;58.30;;;;;;;;;;103863;1292;544735;-72
2024/02/27 13:53:49;;;;;;;54.40;37.10;;;;;;;;;;103759;1291;545003;-72
2024/02/27 13:57:31;;;;;;;75.60;52.00;;;;;;;;;;105794;1289;546039;-73
2024/02/27 14:01:03;;;;;;;53.90;37.40;;;;;;;;;;104509;1289;545235;-71
2024/02/27 14:04:41;;;;;;;50.10;34.90;;;;;;;;;;104067;1289;544930;-70
2024/02/27 14:08:22;;;;;;;53.90;38.50;;;;;;;;;;103876;1296;545780;-72
2024/02/27 14:12:00;;;;;;;51.50;34.90;;;;;;;;;;103714;1291;545160;-72
2024/02/27 14:15:37;;;;;;;49.10;34.90;;;;;;;;;;103629;1291;545182;-72
2024/02/27 14:19:16;;;;;;;51.70;35.50;;;;;;;;;;103703;1289;544968;-72
2024/02/27 14:22:52;;;;;;;46.80;33.00;;;;;;;;;;103761;1292;544934;-72
2024/02/27 14:26:30;;;;;;;62.90;39.10;;;;;;;;;;103682;1294;544927;-72
2024/02/27 14:30:08;;;;;;;49.50;33.20;;;;;;;;;;103727;1289;545014;-72
2024/02/27 14:33:45;;;;;;;52.20;35.40;;;;;;;;;;103905;1289;545095;-72
2024/02/27 14:37:22;;;;;;;50.60;35.20;;;;;;;;;;103634;1297;545089;-71
2024/02/27 14:40:56;;;;;;;44.00;30.00;;;;;;;;;;103775;1289;544755;-72
2024/02/27 14:44:37;;;;;;;48.70;33.70;;;;;;;;;;103709;1295;545168;-72
2024/02/27 14:48:14;;;;;;;51.20;34.50;;;;;;;;;;103814;1291;545505;-72
2024/02/27 14:51:55;;;;;;;47.80;34.80;;;;;;;;;;103769;1289;546524;-72
2024/02/27 14:55:29;;;;;;;48.50;32.30;;;;;;;;;;103638;1296;544725;-72
2024/02/27 14:59:06;;;;;;;46.30;31.00;;;;;;;;;;103748;1291;545257;-72
2024/02/27 15:02:47;;;;;;;48.20;31.30;;;;;;;;;;103888;1290;544949;-72
2024/02/27 15:06:21;;;;;;;43.90;32.40;;;;;;;;;;103645;1292;545387;-72
2024/02/27 15:10:00;;;;;;;46.60;30.10;;;;;;;;;;103719;1295;545475;-72
2024/02/27 15:13:37;;;;;;;55.40;34.10;;;;;;;;;;104103;1288;544855;-72
2024/02/27 15:17:14;;;;;;;55.10;34.20;;;;;;;;;;103793;1289;544773;-72
2024/02/27 15:20:48;;;;;;;46.80;31.90;;;;;;;;;;103835;1294;545761;-72
2024/02/27 15:24:29;;;;;;;49.50;33.80;;;;;;;;;;103720;1292;545555;-71
2024/02/27 15:28:06;;;;;;;55.00;34.00;;;;;;;;;;103758;1288;544777;-72
2024/02/27 15:31:43;;;;;;;78.40;39.70;;;;;;;;;;103829;1289;544944;-72
2024/02/27 15:35:21;;;;;;;184.70;72.70;;;;;;;;;;103753;1291;544969;-72
2024/02/27 15:38:59;;;;;;;149.20;67.10;;;;;;;;;;103766;1292;545034;-72
2024/02/27 15:42:36;;;;;;;99.20;57.20;;;;;;;;;;103894;1289;544971;-72
2024/02/27 15:46:13;;;;;;;155.70;72.90;;;;;;;;;;103867;1289;545035;-72
2024/02/27 15:49:51;;;;;;;116.80;59.90;;;;;;;;;;103670;1295;544793;-72
2024/02/27 15:53:28;;;;;;;110.80;63.70;;;;;;;;;;103825;1289;544810;-72
2024/02/27 15:57:06;;;;;;;92.00;51.60;;;;;;;;;;103657;1292;544875;-72
2024/02/27 16:00:39;;;;;;;85.90;54.70;;;;;;;;;;103846;1288;544745;-72
2024/02/27 16:04:31;;;;;;;54.80;35.60;;;;;;;;;;103685;1292;544864;-72
2024/02/27 16:07:58;;;;;;;82.10;61.60;;;;;;;;;;103895;1289;544954;-72
2024/02/27 16:11:41;;;;;;;77.70;54.80;;;;;;;;;;103607;1293;547837;-72
2024/02/27 16:15:13;;;;;;;61.40;40.30;;;;;;;;;;103822;1289;545947;-71
2024/02/27 16:18:53;;;;;;;72.60;52.80;;;;;;;;;;103592;1291;544774;-72
2024/02/27 16:22:29;;;;;;;74.90;53.10;;;;;;;;;;103714;1289;545256;-72
2024/02/27 16:26:07;;;;;;;79.60;54.70;;;;;;;;;;103682;1292;544956;-72
2024/02/27 16:29:43;;;;;;;89.10;60.20;;;;;;;;;;104661;1289;544780;-72
2024/02/27 16:33:16;;;;;;;69.60;46.70;;;;;;;;;;103512;1289;545167;-71
2024/02/27 16:36:59;;;;;;;65.30;39.40;;;;;;;;;;103787;1288;545962;-71
2024/02/27 16:40:35;;;;;;;60.40;39.10;;;;;;;;;;103599;1295;544890;-72
2024/02/27 16:44:14;;;;;;;65.60;41.80;;;;;;;;;;103610;1292;544821;-72
2024/02/27 16:47:46;;;;;;;57.10;36.80;;;;;;;;;;103903;1292;544949;-72
2024/02/27 16:51:24;;;;;;;56.30;36.30;;;;;;;;;;103867;1289;544794;-70
2024/02/27 16:55:05;;;;;;;54.10;35.70;;;;;;;;;;104759;1289;546208;-72
2024/02/27 16:58:42;;;;;;;54.60;35.90;;;;;;;;;;103920;1289;545009;-72
2024/02/27 17:02:19;;;;;;;52.70;34.20;;;;;;;;;;103996;1289;544811;-72
2024/02/27 17:05:58;;;;;;;47.90;32.60;;;;;;;;;;103660;1291;544967;-72
2024/02/27 17:09:32;;;;;;;58.30;38.50;;;;;;;;;;103686;1292;545589;-70
2024/02/27 17:13:13;;;;;;;50.30;32.80;;;;;;;;;;103788;1289;544818;-72
2024/02/27 17:16:46;;;;;;;55.40;37.80;;;;;;;;;;103598;1291;545143;-72
2024/02/27 17:20:27;;;;;;;57.50;39.40;;;;;;;;;;103741;1291;545110;-72
2024/02/27 17:24:05;;;;;;;62.80;43.40;;;;;;;;;;103731;1289;544720;-72
2024/02/27 17:27:43;;;;;;;58.30;36.70;;;;;;;;;;103790;1289;544796;-72
2024/02/27 17:31:20;;;;;;;56.20;36.30;;;;;;;;;;104097;1291;546305;-71
2024/02/27 17:34:57;;;;;;;57.40;37.40;;;;;;;;;;103822;1289;545027;-72
2024/02/27 17:38:35;;;;;;;61.80;41.90;;;;;;;;;;103763;1294;545089;-71
2024/02/27 17:42:13;;;;;;;61.90;40.10;;;;;;;;;;103695;1289;544786;-71
2024/02/27 17:45:50;;;;;;;90.50;52.50;;;;;;;;;;103626;1292;545432;-72
2024/02/27 17:49:27;;;;;;;131.20;73.00;;;;;;;;;;103942;1292;545510;-72
2024/02/27 17:53:05;;;;;;;125.10;68.80;;;;;;;;;;105816;1288;545246;-72
2024/02/27 17:56:38;;;;;;;85.40;50.50;;;;;;;;;;103873;1288;545517;-70
2024/02/27 18:00:19;;;;;;;70.20;42.80;;;;;;;;;;103604;1292;545379;-72
2024/02/27 18:03:57;;;;;;;65.20;39.50;;;;;;;;;;103820;1289;545027;-72
2024/02/27 18:07:34;;;;;;;59.70;35.50;;;;;;;;;;103676;1297;544992;-72
2024/02/27 18:11:08;;;;;;;63.30;39.60;;;;;;;;;;104079;1288;545924;-72
2024/02/27 18:14:49;;;;;;;53.20;33.20;;;;;;;;;;103865;1288;545512;-72
2024/02/27 18:18:27;;;;;;;52.80;32.80;;;;;;;;;;103771;1294;545146;-72
2024/02/27 18:22:05;;;;;;;53.20;32.20;;;;;;;;;;103636;1292;545675;-71
2024/02/27 18:25:42;;;;;;;53.40;33.10;;;;;;;;;;103808;1291;545367;-72
2024/02/27 18:29:19;;;;;;;94.40;63.30;;;;;;;;;;103581;1303;545385;-72
2024/02/27 18:32:57;;;;;;;60.40;39.80;;;;;;;;;;103863;1292;544887;-72
2024/02/27 18:36:36;;;;;;;74.90;45.80;;;;;;;;;;103613;1291;545678;-72
2024/02/27 18:40:12;;;;;;;114.00;69.40;;;;;;;;;;103759;1292;546070;-71
2024/02/27 18:43:49;;;;;;;66.30;41.20;;;;;;;;;;103578;1291;545524;-72
2024/02/27 18:47:26;;;;;;;73.60;45.80;;;;;;;;;;103717;1291;545925;-72
2024/02/27 18:51:06;;;;;;;79.80;48.30;;;;;;;;;;103892;1289;546131;-72
2024/02/27 18:54:42;;;;;;;71.40;43.70;;;;;;;;;;103603;1290;544796;-72
2024/02/27 18:58:19;;;;;;;59.90;36.20;;;;;;;;;;103958;1289;545765;-72
2024/02/27 19:01:56;;;;;;;60.40;38.30;;;;;;;;;;103662;1292;545016;-72
2024/02/27 19:05:34;;;;;;;67.50;43.10;;;;;;;;;;103642;1291;546606;-72
2024/02/27 19:09:11;;;;;;;56.90;36.90;;;;;;;;;;103600;1295;544740;-72
2024/02/27 19:12:48;;;;;;;52.60;31.90;;;;;;;;;;103632;1295;546382;-72
2024/02/27 19:16:26;;;;;;;54.00;33.40;;;;;;;;;;103801;1289;545508;-72
2024/02/27 19:20:04;;;;;;;47.80;30.10;;;;;;;;;;103672;1292;545043;-72
2024/02/27 19:23:41;;;;;;;52.50;34.00;;;;;;;;;;104430;1289;544993;-72
2024/02/27 19:27:18;;;;;;;54.40;33.00;;;;;;;;;;104005;1289;545991;-72
2024/02/27 19:30:56;;;;;;;55.40;33.50;;;;;;;;;;103737;1289;545787;-72
2024/02/27 19:34:40;;;;;;;60.80;38.60;;;;;;;;;;103611;1291;544770;-72
2024/02/27 19:38:16;;;;;;;51.20;30.20;;;;;;;;;;103757;1292;544712;-72
2024/02/27 19:41:49;;;;;;;49.20;28.20;;;;;;;;;;103775;1292;545388;-72
2024/02/27 19:45:26;;;;;;;45.70;26.50;;;;;;;;;;103746;1288;544982;-72
2024/02/27 19:49:03;;;;;;;49.90;28.90;;;;;;;;;;103717;1294;545057;-71
2024/02/27 19:52:42;;;;;;;51.50;30.70;;;;;;;;;;103777;1289;545097;-72
2024/02/27 19:56:19;;;;;;;56.40;33.10;;;;;;;;;;103746;1289;544758;-72
2024/02/27 19:59:55;;;;;;;59.60;32.00;;;;;;;;;;103750;1295;544961;-72
2024/02/27 20:03:33;;;;;;;55.80;31.70;;;;;;;;;;103683;1289;547532;-72
2024/02/27 20:07:10;;;;;;;56.20;32.80;;;;;;;;;;103749;1291;544964;-71
2024/02/27 20:10:48;;;;;;;64.30;35.20;;;;;;;;;;103606;1291;545492;-72
2024/02/27 20:14:26;;;;;;;64.30;36.70;;;;;;;;;;103790;1289;545361;-72
2024/02/27 20:18:06;;;;;;;63.40;34.20;;;;;;;;;;103749;1291;546390;-72
2024/02/27 20:21:37;;;;;;;57.40;32.90;;;;;;;;;;103750;1291;545321;-70
2024/02/27 20:25:18;;;;;;;57.60;33.40;;;;;;;;;;103677;1291;545849;-72
2024/02/27 20:28:57;;;;;;;57.40;33.20;;;;;;;;;;103811;1289;545044;-72